createdAt,value
2023-02-23T00:02:21.367Z,3.53
2023-02-23T00:04:49.837Z,3.87
2023-02-23T00:07:20.521Z,3.93
2023-02-23T00:09:48.895Z,3.53
2023-02-23T00:12:17.373Z,3.90
2023-02-23T00:14:46.232Z,3.40
2023-02-23T00:17:17.602Z,3.77
2023-02-23T00:19:49.510Z,3.80
2023-02-23T00:22:18.527Z,3.40
2023-02-23T00:24:48.055Z,3.60
2023-02-23T00:27:20.066Z,3.87
2023-02-23T00:29:50.312Z,3.73
2023-02-23T00:32:20.940Z,3.43
2023-02-23T00:34:50.960Z,3.90
2023-02-23T00:37:20.094Z,3.63
2023-02-23T00:39:48.520Z,3.70
2023-02-23T00:42:17.074Z,3.60
2023-02-23T00:44:47.611Z,3.50
2023-02-23T00:47:16.152Z,4.20
2023-02-23T00:49:45.531Z,3.43
2023-02-23T00:52:15.644Z,3.93
2023-02-23T00:54:44.253Z,3.87
2023-02-23T00:57:12.780Z,4.13
2023-02-23T00:59:41.179Z,4.30
2023-02-23T01:02:09.726Z,3.60
2023-02-23T01:04:38.066Z,4.50
2023-02-23T01:07:07.066Z,3.90
2023-02-23T01:09:38.209Z,3.57
2023-02-23T01:12:07.674Z,3.70
2023-02-23T01:14:38.124Z,3.67
2023-02-23T01:17:07.567Z,3.43
2023-02-23T01:19:36.095Z,3.50
2023-02-23T01:22:04.872Z,2.97
2023-02-23T01:24:33.480Z,3.17
2023-02-23T01:27:03.286Z,4.07
2023-02-23T01:29:31.667Z,3.80
2023-02-23T01:32:01.217Z,3.67
2023-02-23T01:34:31.037Z,3.63
2023-02-23T01:36:59.442Z,3.83
2023-02-23T01:39:28.339Z,3.70
2023-02-23T01:41:57.392Z,3.70
2023-02-23T01:45:24.731Z,3.67
2023-02-23T01:47:56.869Z,3.60
2023-02-23T01:50:29.260Z,3.50
2023-02-23T01:52:59.405Z,3.83
2023-02-23T01:55:29.987Z,3.97
2023-02-23T01:58:11.735Z,3.70
2023-02-23T02:00:42.155Z,3.80
2023-02-23T02:03:17.443Z,3.80
2023-02-23T02:05:46.773Z,4.27
2023-02-23T02:08:16.042Z,3.67
2023-02-23T02:10:46.743Z,3.73
2023-02-23T02:13:21.748Z,3.93
2023-02-23T02:16:17.128Z,3.87
2023-02-23T02:19:00.949Z,3.97
2023-02-23T02:22:04.918Z,4.30
2023-02-23T02:25:20.225Z,4.50
2023-02-23T02:28:50.584Z,4.30
2023-02-23T02:32:11.103Z,4.07
2023-02-23T02:35:29.299Z,3.53
2023-02-23T02:38:17.820Z,4.17
2023-02-23T02:40:54.474Z,4.03
2023-02-23T02:43:35.849Z,4.43
2023-02-23T02:46:12.297Z,4.17
2023-02-23T02:48:48.618Z,4.50
2023-02-23T02:51:28.618Z,4.70
2023-02-23T02:54:07.088Z,4.00
2023-02-23T02:56:41.942Z,4.23
2023-02-23T02:59:33.396Z,4.07
2023-02-23T03:02:19.204Z,4.10
2023-02-23T03:05:05.248Z,4.50
2023-02-23T03:07:59.736Z,5.03
2023-02-23T03:10:58.898Z,4.17
2023-02-23T03:14:00.372Z,3.70
2023-02-23T03:16:56.615Z,4.70
2023-02-23T03:19:48.509Z,4.00
2023-02-23T03:22:42.840Z,5.17
2023-02-23T03:25:33.273Z,5.03
2023-02-23T03:28:30.287Z,4.40
2023-02-23T03:31:24.241Z,4.23
2023-02-23T03:34:22.043Z,5.03
2023-02-23T03:37:17.122Z,4.37
2023-02-23T03:40:13.291Z,4.43
2023-02-23T03:43:01.965Z,4.77
2023-02-23T03:45:50.107Z,5.07
2023-02-23T03:48:39.300Z,4.70
2023-02-23T03:51:31.205Z,4.97
2023-02-23T03:54:22.798Z,4.10
2023-02-23T03:57:12.972Z,4.80
2023-02-23T04:00:04.828Z,4.60
2023-02-23T04:02:55.599Z,4.03
2023-02-23T04:05:44.069Z,4.40
2023-02-23T04:08:36.036Z,4.87
2023-02-23T04:11:33.719Z,4.73
2023-02-23T04:14:07.438Z,4.70
2023-02-23T04:16:34.895Z,4.33
2023-02-23T04:19:04.902Z,4.60
2023-02-23T04:21:33.302Z,4.40
2023-02-23T04:24:01.697Z,4.73
2023-02-23T04:26:30.064Z,4.70
2023-02-23T04:28:58.460Z,4.43
2023-02-23T04:31:27.302Z,4.50
2023-02-23T04:33:55.946Z,4.30
2023-02-23T04:36:26.925Z,4.30
2023-02-23T04:38:55.238Z,4.37
2023-02-23T04:41:23.683Z,4.33
2023-02-23T04:43:52.381Z,5.00
2023-02-23T04:46:20.839Z,5.10
2023-02-23T04:48:49.352Z,3.83
2023-02-23T04:51:17.972Z,4.20
2023-02-23T04:53:47.807Z,4.57
2023-02-23T04:56:16.311Z,4.07
2023-02-23T04:58:44.960Z,4.33
2023-02-23T05:01:13.475Z,3.87
2023-02-23T05:03:41.910Z,4.43
2023-02-23T05:06:12.319Z,4.13
2023-02-23T05:08:40.690Z,4.50
2023-02-23T05:11:13.225Z,4.10
2023-02-23T05:13:41.570Z,4.60
2023-02-23T05:16:10.298Z,4.37
2023-02-23T05:18:40.010Z,5.03
2023-02-23T05:21:10.478Z,3.53
2023-02-23T05:23:39.269Z,4.50
2023-02-23T05:26:12.092Z,4.17
2023-02-23T05:28:42.786Z,4.47
2023-02-23T05:31:12.235Z,4.20
2023-02-23T05:33:42.678Z,5.47
2023-02-23T05:36:12.532Z,4.23
2023-02-23T05:38:41.819Z,4.43
2023-02-23T05:41:14.137Z,4.23
2023-02-23T05:43:42.905Z,3.83
2023-02-23T05:46:13.536Z,4.67
2023-02-23T05:48:42.206Z,4.63
2023-02-23T05:51:14.188Z,4.00
2023-02-23T05:53:42.967Z,3.60
2023-02-23T05:56:20.506Z,4.20
2023-02-23T05:58:49.487Z,4.87
2023-02-23T06:01:18.770Z,4.20
2023-02-23T06:03:48.207Z,3.90
2023-02-23T06:06:17.351Z,3.73
2023-02-23T06:08:46.221Z,4.07
2023-02-23T06:11:16.191Z,3.90
2023-02-23T06:13:44.640Z,3.87
2023-02-23T06:16:13.276Z,4.07
2023-02-23T06:18:41.812Z,3.90
2023-02-23T06:21:10.294Z,3.63
2023-02-23T06:23:39.005Z,3.87
2023-02-23T06:26:07.878Z,4.00
2023-02-23T06:28:38.966Z,3.70
2023-02-23T06:31:07.775Z,4.30
2023-02-23T06:33:36.240Z,4.03
2023-02-23T06:36:05.116Z,3.90
2023-02-23T06:38:33.552Z,3.77
2023-02-23T06:41:07.558Z,3.80
2023-02-23T06:43:37.739Z,4.77
2023-02-23T06:46:06.593Z,3.80
2023-02-23T06:48:35.636Z,4.20
2023-02-23T06:51:04.963Z,4.97
2023-02-23T06:53:33.669Z,4.70
2023-02-23T06:56:02.214Z,4.80
2023-02-23T06:58:31.323Z,3.67
2023-02-23T07:01:01.226Z,4.30
2023-02-23T07:03:30.765Z,4.57
2023-02-23T07:05:59.305Z,4.50
2023-02-23T07:08:27.828Z,4.07
2023-02-23T07:10:57.748Z,4.10
2023-02-23T07:13:26.214Z,4.07
2023-02-23T07:16:00.303Z,4.00
2023-02-23T07:18:28.881Z,4.70
2023-02-23T07:20:58.288Z,3.90
2023-02-23T07:23:26.830Z,4.30
2023-02-23T07:25:56.699Z,4.93
2023-02-23T07:28:27.515Z,3.90
2023-02-23T07:30:57.881Z,4.40
2023-02-23T07:33:28.054Z,4.13
2023-02-23T07:35:59.229Z,4.37
2023-02-23T07:38:28.721Z,4.40
2023-02-23T07:40:57.282Z,4.13
2023-02-23T07:43:30.323Z,4.70
2023-02-23T07:46:01.246Z,4.67
2023-02-23T07:48:31.715Z,4.83
2023-02-23T07:51:00.090Z,4.23
2023-02-23T07:53:29.005Z,4.27
2023-02-23T07:56:00.842Z,4.37
2023-02-23T07:58:30.648Z,4.50
2023-02-23T08:00:59.581Z,4.40
2023-02-23T08:03:28.113Z,4.30
2023-02-23T08:05:57.862Z,3.93
2023-02-23T08:08:27.007Z,4.60
2023-02-23T08:11:01.978Z,4.60
2023-02-23T08:13:31.934Z,4.63
2023-02-23T08:16:00.816Z,4.60
2023-02-23T08:18:32.140Z,4.40
2023-02-23T08:21:03.500Z,4.20
2023-02-23T08:23:32.833Z,4.57
2023-02-23T08:26:01.657Z,4.80
2023-02-23T08:28:32.580Z,4.30
2023-02-23T08:31:01.095Z,4.73
2023-02-23T08:33:31.791Z,4.43
2023-02-23T08:36:03.080Z,4.93
2023-02-23T08:38:32.678Z,5.30
2023-02-23T08:41:02.356Z,4.77
2023-02-23T08:43:31.111Z,4.13
2023-02-23T08:45:59.781Z,4.63
2023-02-23T08:48:28.382Z,5.20
2023-02-23T08:50:58.507Z,5.03
2023-02-23T08:53:29.687Z,4.60
2023-02-23T08:56:00.641Z,5.13
2023-02-23T08:58:30.569Z,4.90
2023-02-23T09:00:59.498Z,3.90
2023-02-23T09:03:30.696Z,5.67
2023-02-23T09:06:06.336Z,4.83
2023-02-23T09:08:36.586Z,4.40
2023-02-23T09:11:05.096Z,4.80
2023-02-23T09:13:33.624Z,4.47
2023-02-23T09:16:03.960Z,5.00
2023-02-23T09:18:32.750Z,5.00
2023-02-23T09:21:06.566Z,5.30
2023-02-23T09:23:36.992Z,4.53
2023-02-23T09:26:06.177Z,5.27
2023-02-23T09:28:35.337Z,4.60
2023-02-23T09:31:08.420Z,5.53
2023-02-23T09:33:37.423Z,5.77
2023-02-23T09:36:08.012Z,4.80
2023-02-23T09:38:37.779Z,4.77
2023-02-23T09:41:24.529Z,5.23
2023-02-23T09:44:02.314Z,5.17
2023-02-23T09:46:40.348Z,5.27
2023-02-23T09:49:16.592Z,5.23
2023-02-23T09:51:51.830Z,5.67
2023-02-23T09:54:25.348Z,5.60
2023-02-23T09:56:56.429Z,5.67
2023-02-23T09:59:26.460Z,6.27
2023-02-23T10:02:05.597Z,6.20
2023-02-23T10:04:40.787Z,5.87
2023-02-23T10:07:20.881Z,5.47
2023-02-23T10:10:07.525Z,5.40
2023-02-23T10:12:47.386Z,5.38
2023-02-23T10:15:29.306Z,5.28
2023-02-23T10:18:10.620Z,5.53
2023-02-23T10:20:50.944Z,5.85
2023-02-23T10:23:28.334Z,5.38
2023-02-23T10:26:03.650Z,5.40
2023-02-23T10:28:39.125Z,4.78
2023-02-23T10:31:28.580Z,5.90
2023-02-23T10:34:01.979Z,5.28
2023-02-23T10:36:37.909Z,5.45
2023-02-23T10:39:09.895Z,5.72
2023-02-23T10:41:40.757Z,5.22
2023-02-23T10:44:20.947Z,5.43
2023-02-23T10:46:55.956Z,4.93
2023-02-23T10:49:30.903Z,5.60
2023-02-23T10:52:03.029Z,5.47
2023-02-23T10:54:44.213Z,5.05
2023-02-23T10:57:24.667Z,5.22
2023-02-23T11:00:32.879Z,5.28
2023-02-23T11:03:03.383Z,5.40
2023-02-23T11:05:45.452Z,5.57
2023-02-23T11:08:27.250Z,5.60
2023-02-23T11:11:19.853Z,5.50
2023-02-23T11:13:51.579Z,5.00
2023-02-23T11:16:22.891Z,5.35
2023-02-23T11:18:55.802Z,5.38
2023-02-23T11:21:33.524Z,5.78
2023-02-23T11:24:19.288Z,5.72
2023-02-23T11:26:52.020Z,5.28
2023-02-23T11:29:33.533Z,5.75
2023-02-23T11:32:09.843Z,5.05
2023-02-23T11:34:40.825Z,5.75
2023-02-23T11:37:22.177Z,5.60
2023-02-23T11:39:56.470Z,5.60
2023-02-23T11:42:29.209Z,5.60
2023-02-23T11:45:09.352Z,5.55
2023-02-23T11:47:48.189Z,5.82
2023-02-23T11:50:27.096Z,5.72
2023-02-23T11:53:03.264Z,5.78
2023-02-23T11:55:38.358Z,5.93
2023-02-23T11:58:26.317Z,5.95
2023-02-23T12:01:11.263Z,5.70
2023-02-23T12:03:45.780Z,5.32
2023-02-23T12:06:27.898Z,5.53
2023-02-23T12:09:02.907Z,5.57
2023-02-23T12:11:37.379Z,5.85
2023-02-23T12:14:20.016Z,5.70
2023-02-23T12:16:58.504Z,5.20
2023-02-23T12:19:33.738Z,4.80
2023-02-23T12:22:08.349Z,5.50
2023-02-23T12:24:45.637Z,5.67
2023-02-23T12:27:22.503Z,5.70
2023-02-23T12:30:06.261Z,5.63
2023-02-23T12:32:47.882Z,5.37
2023-02-23T12:35:22.393Z,5.17
2023-02-23T12:37:57.535Z,5.33
2023-02-23T12:40:29.556Z,5.00
2023-02-23T12:43:06.964Z,5.40
2023-02-23T12:45:44.958Z,5.30
2023-02-23T12:48:28.687Z,4.97
2023-02-23T12:51:04.353Z,5.80
2023-02-23T12:53:40.838Z,5.43
2023-02-23T12:56:34.027Z,5.40
2023-02-23T12:59:22.015Z,5.10
2023-02-23T13:01:56.893Z,4.83
2023-02-23T13:05:03.575Z,5.10
2023-02-23T13:07:45.025Z,5.30
2023-02-23T13:10:26.923Z,4.97
2023-02-23T13:13:07.095Z,5.23
2023-02-23T13:15:53.658Z,4.73
2023-02-23T13:18:28.269Z,5.07
2023-02-23T13:21:09.045Z,4.93
2023-02-23T13:23:44.195Z,5.40
2023-02-23T13:26:24.858Z,5.10
2023-02-23T13:29:00.359Z,4.93
2023-02-23T13:31:33.514Z,5.40
2023-02-23T13:34:06.546Z,5.27
2023-02-23T13:36:37.931Z,5.53
2023-02-23T13:39:56.802Z,5.20
2023-02-23T13:42:45.426Z,5.80
2023-02-23T13:45:33.596Z,5.93
2023-02-23T13:48:15.831Z,5.27
2023-02-23T13:50:52.822Z,5.37
2023-02-23T13:53:41.090Z,6.47
2023-02-23T13:56:16.302Z,5.73
2023-02-23T13:58:49.577Z,5.57
2023-02-23T14:01:22.889Z,5.40
2023-02-23T14:03:58.192Z,5.27
2023-02-23T14:06:30.825Z,6.67
2023-02-23T14:09:08.370Z,6.03
2023-02-23T14:11:49.625Z,5.57
2023-02-23T14:14:44.417Z,5.53
2023-02-23T14:17:56.333Z,5.10
2023-02-23T14:20:53.223Z,5.10
2023-02-23T14:23:37.778Z,5.23
2023-02-23T14:26:39.285Z,5.40
2023-02-23T14:29:27.211Z,5.83
2023-02-23T14:32:04.166Z,5.97
2023-02-23T14:34:48.134Z,5.20
2023-02-23T14:37:25.287Z,4.80
2023-02-23T14:39:57.299Z,5.67
2023-02-23T14:42:30.207Z,5.10
2023-02-23T14:45:06.212Z,5.63
2023-02-23T14:47:46.824Z,5.40
2023-02-23T14:50:26.982Z,5.23
2023-02-23T14:52:57.414Z,6.00
2023-02-23T14:55:29.688Z,5.63
2023-02-23T14:57:59.800Z,6.00
2023-02-23T15:00:32.726Z,6.00
2023-02-23T15:03:03.036Z,5.43
2023-02-23T15:05:36.985Z,4.97
2023-02-23T15:08:10.726Z,6.37
2023-02-23T15:10:41.863Z,6.23
2023-02-23T15:13:21.650Z,6.27
2023-02-23T15:15:50.518Z,6.23
2023-02-23T15:18:29.655Z,6.87
2023-02-23T15:20:59.232Z,5.63
2023-02-23T15:23:29.168Z,6.03
2023-02-23T15:25:57.613Z,5.83
2023-02-23T15:28:31.226Z,6.60
2023-02-23T15:31:04.620Z,5.80
2023-02-23T15:33:34.114Z,6.27
2023-02-23T15:36:09.578Z,6.50
2023-02-23T15:38:45.548Z,6.57
2023-02-23T15:41:26.745Z,6.27
2023-02-23T15:44:04.550Z,6.00
2023-02-23T15:46:34.446Z,6.17
2023-02-23T15:49:05.387Z,6.03
2023-02-23T15:51:39.056Z,6.60
2023-02-23T15:54:17.855Z,6.50
2023-02-23T15:56:50.918Z,6.80
2023-02-23T15:59:28.938Z,5.93
2023-02-23T16:02:02.271Z,6.80
2023-02-23T16:04:33.713Z,6.47
2023-02-23T16:07:16.157Z,7.03
2023-02-23T16:09:51.839Z,7.78
2023-02-23T16:12:24.669Z,6.60
2023-02-23T16:14:58.134Z,7.10
2023-02-23T16:17:31.449Z,6.90
2023-02-23T16:20:19.633Z,7.93
2023-02-23T16:22:55.029Z,8.05
2023-02-23T16:25:28.357Z,6.87
2023-02-23T16:28:03.015Z,8.40
2023-02-23T16:30:44.062Z,7.47
2023-02-23T16:33:22.850Z,6.73
2023-02-23T16:35:55.520Z,7.70
2023-02-23T16:38:29.172Z,7.17
2023-02-23T16:40:57.902Z,7.27
2023-02-23T16:43:27.099Z,7.10
2023-02-23T16:45:57.663Z,7.43
2023-02-23T16:48:26.347Z,7.93
2023-02-23T16:50:55.539Z,7.20
2023-02-23T16:53:25.553Z,8.07
2023-02-23T16:56:01.854Z,6.77
2023-02-23T16:58:33.652Z,7.57
2023-02-23T17:01:05.646Z,6.50
2023-02-23T17:03:38.199Z,7.37
2023-02-23T17:06:13.804Z,7.57
2023-02-23T17:08:52.161Z,6.97
2023-02-23T17:11:27.812Z,7.57
2023-02-23T17:13:56.536Z,7.80
2023-02-23T17:16:26.375Z,8.17
2023-02-23T17:18:54.924Z,7.70
2023-02-23T17:21:25.190Z,7.53
2023-02-23T17:24:03.595Z,8.10
2023-02-23T17:26:32.428Z,7.03
2023-02-23T17:29:00.969Z,7.60
2023-02-23T17:31:32.584Z,8.20
2023-02-23T17:34:02.705Z,7.17
2023-02-23T17:36:32.332Z,7.60
2023-02-23T17:39:01.619Z,7.87
2023-02-23T17:41:30.174Z,7.90
2023-02-23T17:43:58.858Z,7.90
2023-02-23T17:46:27.495Z,7.77
2023-02-23T17:48:58.431Z,7.60
2023-02-23T17:51:27.375Z,7.53
2023-02-23T17:54:26.318Z,8.03
2023-02-23T17:57:00.473Z,8.90
2023-02-23T17:59:31.267Z,8.30
2023-02-23T18:02:00.406Z,10.27
2023-02-23T18:04:30.788Z,9.27
2023-02-23T18:07:01.706Z,8.90
2023-02-23T18:09:30.124Z,8.77
2023-02-23T18:11:58.662Z,9.10
2023-02-23T18:14:28.007Z,9.13
2023-02-23T18:16:59.044Z,9.30
2023-02-23T18:19:32.743Z,9.20
2023-02-23T18:22:01.371Z,9.27
2023-02-23T18:24:31.976Z,10.53
2023-02-23T18:27:04.365Z,9.90
2023-02-23T18:29:35.884Z,9.97
2023-02-23T18:32:06.711Z,9.90
2023-02-23T18:34:37.580Z,9.90
2023-02-23T18:37:10.283Z,10.77
2023-02-23T18:39:39.297Z,10.93
2023-02-23T18:42:07.958Z,10.13
2023-02-23T18:44:36.361Z,9.97
2023-02-23T18:47:04.816Z,11.37
2023-02-23T18:49:37.042Z,10.00
2023-02-23T18:52:09.194Z,11.23
2023-02-23T18:54:38.496Z,11.13
2023-02-23T18:57:07.139Z,10.37
2023-02-23T18:59:35.905Z,10.40
2023-02-23T19:02:05.320Z,10.43
2023-02-23T19:04:36.673Z,10.43
2023-02-23T19:07:06.116Z,10.87
2023-02-23T19:09:41.391Z,11.27
2023-02-23T19:12:12.058Z,12.37
2023-02-23T19:14:49.616Z,11.20
2023-02-23T19:17:19.220Z,11.70
2023-02-23T19:20:00.364Z,11.30
2023-02-23T19:25:36.676Z,11.07
2023-02-23T19:28:05.554Z,11.30
2023-02-23T19:33:30.740Z,10.60
2023-02-23T19:36:44.481Z,10.97
2023-02-23T19:39:29.149Z,10.93
2023-02-23T19:41:58.700Z,11.20
2023-02-23T19:44:29.982Z,11.60
2023-02-23T19:46:58.888Z,12.00
2023-02-23T19:49:28.047Z,11.93
2023-02-23T19:51:59.285Z,11.70
2023-02-23T19:54:28.971Z,11.30
2023-02-23T19:56:57.826Z,11.93
2023-02-23T19:59:28.640Z,11.57
2023-02-23T20:01:57.437Z,11.50
2023-02-23T20:04:29.826Z,12.57
2023-02-23T20:07:01.251Z,12.33
2023-02-23T20:09:34.681Z,11.87
2023-02-23T20:12:04.636Z,12.70
2023-02-23T20:14:35.752Z,12.23
2023-02-23T20:17:14.483Z,12.47
2023-02-23T20:19:50.199Z,13.50
2023-02-23T20:22:54.936Z,12.47
2023-02-23T20:25:24.865Z,12.80
2023-02-23T20:27:53.445Z,13.50
2023-02-23T20:30:24.806Z,12.77
2023-02-23T20:32:53.376Z,12.83
2023-02-23T20:35:26.403Z,12.93
2023-02-23T20:37:58.292Z,13.10
2023-02-23T20:40:28.535Z,12.90
2023-02-23T20:42:56.973Z,13.27
2023-02-23T20:45:27.175Z,13.27
2023-02-23T20:47:58.330Z,12.83
2023-02-23T20:50:28.743Z,13.80
2023-02-23T20:52:58.724Z,13.93
2023-02-23T20:55:28.635Z,14.97
2023-02-23T20:57:58.163Z,13.93
2023-02-23T21:00:29.359Z,14.77
2023-02-23T21:02:57.782Z,13.93
2023-02-23T21:05:29.724Z,15.33
2023-02-23T21:08:05.489Z,14.63
2023-02-23T21:10:36.630Z,14.33
2023-02-23T21:13:05.875Z,15.47
2023-02-23T21:15:36.871Z,14.57
2023-02-23T21:18:18.054Z,15.47
2023-02-23T21:20:46.526Z,15.37
2023-02-23T21:23:20.447Z,15.70
2023-02-23T21:25:50.485Z,14.63
2023-02-23T21:28:19.686Z,14.97
2023-02-23T21:30:48.410Z,16.00
2023-02-23T21:33:17.211Z,16.47
2023-02-23T21:35:47.195Z,15.80
2023-02-23T21:38:18.899Z,16.47
2023-02-23T21:40:47.754Z,16.70
2023-02-23T21:43:16.196Z,17.07
2023-02-23T21:45:47.724Z,17.30
2023-02-23T21:48:16.812Z,14.90
2023-02-23T21:50:45.331Z,17.53
2023-02-23T21:53:16.957Z,16.63
2023-02-23T21:55:46.191Z,16.50
2023-02-23T21:58:14.985Z,17.20
2023-02-23T22:00:44.790Z,17.00
2023-02-23T22:03:13.312Z,18.47
2023-02-23T22:05:41.714Z,18.10
2023-02-23T22:08:15.675Z,17.47
2023-02-23T22:10:46.482Z,17.63
2023-02-23T22:13:14.919Z,18.57
2023-02-23T22:15:43.332Z,17.63
2023-02-23T22:18:14.199Z,18.10
2023-02-23T22:20:45.438Z,17.23
2023-02-23T22:23:14.009Z,18.27
2023-02-23T22:25:46.981Z,19.50
2023-02-23T22:28:17.138Z,18.60
2023-02-23T22:30:46.289Z,19.73
2023-02-23T22:33:15.238Z,19.20
2023-02-23T22:35:43.732Z,18.53
2023-02-23T22:38:14.455Z,18.97
2023-02-23T22:40:43.502Z,18.30
2023-02-23T22:43:12.506Z,19.43
2023-02-23T22:45:43.564Z,18.87
2023-02-23T22:48:12.437Z,17.77
2023-02-23T22:50:42.281Z,19.00
2023-02-23T22:53:11.724Z,18.27
2023-02-23T22:55:40.937Z,18.63
2023-02-23T22:58:12.018Z,19.20
2023-02-23T23:00:42.017Z,19.23
2023-02-23T23:03:11.120Z,20.03
2023-02-23T23:05:39.632Z,19.70
2023-02-23T23:08:09.463Z,19.23
2023-02-23T23:10:38.923Z,19.43
2023-02-23T23:13:07.473Z,18.90
2023-02-23T23:15:35.830Z,19.00
2023-02-23T23:18:14.066Z,19.13
2023-02-23T23:20:44.001Z,18.83
2023-02-23T23:23:12.597Z,20.77
2023-02-23T23:25:42.385Z,21.13
2023-02-23T23:28:14.469Z,19.30
2023-02-23T23:30:47.190Z,21.67
2023-02-23T23:33:18.956Z,19.83
2023-02-23T23:35:49.955Z,19.93
2023-02-23T23:38:19.985Z,21.13
2023-02-23T23:40:48.481Z,20.07
2023-02-23T23:43:19.566Z,19.93
2023-02-23T23:45:51.192Z,19.93
2023-02-23T23:48:21.785Z,19.20
2023-02-23T23:50:50.758Z,20.27
2023-02-23T23:53:19.764Z,20.10
2023-02-23T23:55:53.196Z,21.43
2023-02-23T23:58:21.992Z,20.73
